sensor_id;sensor_type;location;lat;lon;timestamp;P1;durP1;ratioP1;P2;durP2;ratioP2
13959;SDS011;7052;51.050;3.716;2023-01-10T00:00:25;9.13;;;3.10;;
13959;SDS011;7052;51.050;3.716;2023-01-10T00:02:56;9.03;;;3.33;;
13959;SDS011;7052;51.050;3.716;2023-01-10T00:05:23;9.10;;;3.00;;
13959;SDS011;7052;51.050;3.716;2023-01-10T00:07:51;10.00;;;3.17;;
13959;SDS011;7052;51.050;3.716;2023-01-10T00:10:29;11.27;;;3.50;;
13959;SDS011;7052;51.050;3.716;2023-01-10T00:12:57;9.70;;;3.27;;
13959;SDS011;7052;51.050;3.716;2023-01-10T00:15:41;9.17;;;3.23;;
13959;SDS011;7052;51.050;3.716;2023-01-10T00:18:08;12.87;;;3.67;;
13959;SDS011;7052;51.050;3.716;2023-01-10T00:20:35;12.37;;;3.33;;
13959;SDS011;7052;51.050;3.716;2023-01-10T00:23:03;8.70;;;2.80;;
13959;SDS011;7052;51.050;3.716;2023-01-10T00:25:31;10.27;;;3.33;;
13959;SDS011;7052;51.050;3.716;2023-01-10T00:28:00;10.60;;;3.03;;
13959;SDS011;7052;51.050;3.716;2023-01-10T00:30:31;6.83;;;3.03;;
13959;SDS011;7052;51.050;3.716;2023-01-10T00:32:59;14.60;;;3.97;;
13959;SDS011;7052;51.050;3.716;2023-01-10T00:35:29;10.57;;;3.17;;
13959;SDS011;7052;51.050;3.716;2023-01-10T00:37:56;7.80;;;2.77;;
13959;SDS011;7052;51.050;3.716;2023-01-10T00:40:31;11.87;;;4.13;;
13959;SDS011;7052;51.050;3.716;2023-01-10T00:42:58;12.97;;;3.50;;
13959;SDS011;7052;51.050;3.716;2023-01-10T00:45:43;9.60;;;3.00;;
13959;SDS011;7052;51.050;3.716;2023-01-10T00:48:10;12.20;;;3.50;;
13959;SDS011;7052;51.050;3.716;2023-01-10T00:50:37;10.90;;;3.70;;
13959;SDS011;7052;51.050;3.716;2023-01-10T00:53:04;12.93;;;3.30;;
13959;SDS011;7052;51.050;3.716;2023-01-10T00:55:32;14.10;;;3.60;;
13959;SDS011;7052;51.050;3.716;2023-01-10T00:58:00;13.13;;;3.57;;
13959;SDS011;7052;51.050;3.716;2023-01-10T01:00:27;13.27;;;3.40;;
13959;SDS011;7052;51.050;3.716;2023-01-10T01:02:54;14.37;;;3.67;;
13959;SDS011;7052;51.050;3.716;2023-01-10T01:05:21;11.90;;;3.37;;
13959;SDS011;7052;51.050;3.716;2023-01-10T01:07:48;16.43;;;3.03;;
13959;SDS011;7052;51.050;3.716;2023-01-10T01:10:17;10.67;;;3.60;;
13959;SDS011;7052;51.050;3.716;2023-01-10T01:12:55;7.00;;;3.03;;
13959;SDS011;7052;51.050;3.716;2023-01-10T01:15:24;15.00;;;3.93;;
13959;SDS011;7052;51.050;3.716;2023-01-10T01:17:52;12.60;;;3.40;;
13959;SDS011;7052;51.050;3.716;2023-01-10T01:20:22;8.20;;;3.50;;
13959;SDS011;7052;51.050;3.716;2023-01-10T01:22:49;13.70;;;3.70;;
13959;SDS011;7052;51.050;3.716;2023-01-10T01:25:16;14.50;;;3.60;;
13959;SDS011;7052;51.050;3.716;2023-01-10T01:27:43;15.03;;;3.63;;
13959;SDS011;7052;51.050;3.716;2023-01-10T01:30:11;13.20;;;3.40;;
13959;SDS011;7052;51.050;3.716;2023-01-10T01:32:39;16.87;;;3.97;;
13959;SDS011;7052;51.050;3.716;2023-01-10T01:35:07;13.77;;;3.60;;
13959;SDS011;7052;51.050;3.716;2023-01-10T01:37:36;16.47;;;3.73;;
13959;SDS011;7052;51.050;3.716;2023-01-10T01:40:03;14.83;;;4.03;;
13959;SDS011;7052;51.050;3.716;2023-01-10T01:42:32;13.00;;;3.57;;
13959;SDS011;7052;51.050;3.716;2023-01-10T01:48:12;13.30;;;3.60;;
13959;SDS011;7052;51.050;3.716;2023-01-10T01:50:46;12.17;;;3.70;;
13959;SDS011;7052;51.050;3.716;2023-01-10T01:53:17;11.57;;;3.50;;
13959;SDS011;7052;51.050;3.716;2023-01-10T01:55:48;12.40;;;4.10;;
13959;SDS011;7052;51.050;3.716;2023-01-10T01:58:17;13.63;;;3.60;;
13959;SDS011;7052;51.050;3.716;2023-01-10T02:00:51;16.73;;;4.20;;
13959;SDS011;7052;51.050;3.716;2023-01-10T02:03:18;15.97;;;3.87;;
13959;SDS011;7052;51.050;3.716;2023-01-10T02:05:45;14.37;;;3.83;;
13959;SDS011;7052;51.050;3.716;2023-01-10T02:08:12;17.77;;;4.10;;
13959;SDS011;7052;51.050;3.716;2023-01-10T02:10:40;14.57;;;3.90;;
13959;SDS011;7052;51.050;3.716;2023-01-10T02:13:13;14.83;;;3.37;;
13959;SDS011;7052;51.050;3.716;2023-01-10T02:15:42;16.87;;;3.80;;
13959;SDS011;7052;51.050;3.716;2023-01-10T02:18:11;17.17;;;3.87;;
13959;SDS011;7052;51.050;3.716;2023-01-10T02:20:41;12.83;;;3.93;;
13959;SDS011;7052;51.050;3.716;2023-01-10T02:23:25;16.37;;;4.17;;
13959;SDS011;7052;51.050;3.716;2023-01-10T02:26:16;19.87;;;4.43;;
13959;SDS011;7052;51.050;3.716;2023-01-10T02:29:29;15.07;;;4.10;;
13959;SDS011;7052;51.050;3.716;2023-01-10T02:32:19;18.23;;;4.53;;
13959;SDS011;7052;51.050;3.716;2023-01-10T02:34:57;18.50;;;4.20;;
13959;SDS011;7052;51.050;3.716;2023-01-10T02:37:36;16.83;;;5.10;;
13959;SDS011;7052;51.050;3.716;2023-01-10T02:40:11;16.90;;;4.77;;
13959;SDS011;7052;51.050;3.716;2023-01-10T02:42:45;13.77;;;4.03;;
13959;SDS011;7052;51.050;3.716;2023-01-10T02:45:22;16.20;;;4.53;;
13959;SDS011;7052;51.050;3.716;2023-01-10T02:47:55;17.57;;;4.50;;
13959;SDS011;7052;51.050;3.716;2023-01-10T02:50:29;16.90;;;4.37;;
13959;SDS011;7052;51.050;3.716;2023-01-10T02:53:06;15.57;;;4.27;;
13959;SDS011;7052;51.050;3.716;2023-01-10T02:55:38;17.87;;;4.53;;
13959;SDS011;7052;51.050;3.716;2023-01-10T02:58:14;16.70;;;4.30;;
13959;SDS011;7052;51.050;3.716;2023-01-10T03:00:50;16.23;;;4.00;;
13959;SDS011;7052;51.050;3.716;2023-01-10T03:03:27;16.60;;;4.60;;
13959;SDS011;7052;51.050;3.716;2023-01-10T03:08:50;17.73;;;4.03;;
13959;SDS011;7052;51.050;3.716;2023-01-10T03:11:22;13.17;;;3.77;;
13959;SDS011;7052;51.050;3.716;2023-01-10T03:14:05;15.23;;;4.00;;
13959;SDS011;7052;51.050;3.716;2023-01-10T03:16:36;20.07;;;4.57;;
13959;SDS011;7052;51.050;3.716;2023-01-10T03:19:08;16.20;;;4.10;;
13959;SDS011;7052;51.050;3.716;2023-01-10T03:21:38;15.33;;;4.13;;
13959;SDS011;7052;51.050;3.716;2023-01-10T03:24:10;17.27;;;4.30;;
13959;SDS011;7052;51.050;3.716;2023-01-10T03:26:42;18.23;;;4.63;;
13959;SDS011;7052;51.050;3.716;2023-01-10T03:29:14;19.27;;;4.23;;
13959;SDS011;7052;51.050;3.716;2023-01-10T03:31:45;17.03;;;4.30;;
13959;SDS011;7052;51.050;3.716;2023-01-10T03:34:17;19.67;;;4.37;;
13959;SDS011;7052;51.050;3.716;2023-01-10T03:36:46;18.50;;;4.23;;
13959;SDS011;7052;51.050;3.716;2023-01-10T03:39:19;20.50;;;3.97;;
13959;SDS011;7052;51.050;3.716;2023-01-10T03:41:52;15.30;;;4.63;;
13959;SDS011;7052;51.050;3.716;2023-01-10T03:44:29;14.67;;;4.33;;
13959;SDS011;7052;51.050;3.716;2023-01-10T03:47:08;15.73;;;4.23;;
13959;SDS011;7052;51.050;3.716;2023-01-10T03:49:40;17.83;;;4.33;;
13959;SDS011;7052;51.050;3.716;2023-01-10T03:52:12;18.17;;;4.90;;
13959;SDS011;7052;51.050;3.716;2023-01-10T03:54:41;20.07;;;4.37;;
13959;SDS011;7052;51.050;3.716;2023-01-10T03:57:13;18.90;;;4.80;;
13959;SDS011;7052;51.050;3.716;2023-01-10T03:59:41;15.00;;;4.73;;
13959;SDS011;7052;51.050;3.716;2023-01-10T04:02:09;14.63;;;4.53;;
13959;SDS011;7052;51.050;3.716;2023-01-10T04:04:36;17.27;;;5.17;;
13959;SDS011;7052;51.050;3.716;2023-01-10T04:07:04;16.53;;;4.27;;
13959;SDS011;7052;51.050;3.716;2023-01-10T04:09:31;19.57;;;4.87;;
13959;SDS011;7052;51.050;3.716;2023-01-10T04:11:58;15.73;;;5.33;;
13959;SDS011;7052;51.050;3.716;2023-01-10T04:14:24;17.77;;;5.23;;
13959;SDS011;7052;51.050;3.716;2023-01-10T04:16:52;16.37;;;4.50;;
13959;SDS011;7052;51.050;3.716;2023-01-10T04:19:19;16.90;;;4.30;;
13959;SDS011;7052;51.050;3.716;2023-01-10T04:21:46;18.03;;;3.93;;
13959;SDS011;7052;51.050;3.716;2023-01-10T04:24:14;15.20;;;4.33;;
13959;SDS011;7052;51.050;3.716;2023-01-10T04:26:41;20.30;;;4.90;;
13959;SDS011;7052;51.050;3.716;2023-01-10T04:29:08;18.50;;;4.30;;
13959;SDS011;7052;51.050;3.716;2023-01-10T04:31:35;16.50;;;4.17;;
13959;SDS011;7052;51.050;3.716;2023-01-10T04:34:03;20.23;;;4.50;;
13959;SDS011;7052;51.050;3.716;2023-01-10T04:36:32;15.83;;;4.67;;
13959;SDS011;7052;51.050;3.716;2023-01-10T04:38:58;16.23;;;3.90;;
13959;SDS011;7052;51.050;3.716;2023-01-10T04:41:27;19.07;;;4.90;;
13959;SDS011;7052;51.050;3.716;2023-01-10T04:43:54;15.63;;;5.10;;
13959;SDS011;7052;51.050;3.716;2023-01-10T04:46:21;21.53;;;5.23;;
13959;SDS011;7052;51.050;3.716;2023-01-10T04:48:47;15.97;;;4.50;;
13959;SDS011;7052;51.050;3.716;2023-01-10T04:51:14;15.97;;;4.47;;
13959;SDS011;7052;51.050;3.716;2023-01-10T04:53:41;16.63;;;4.97;;
13959;SDS011;7052;51.050;3.716;2023-01-10T04:56:08;17.50;;;4.33;;
13959;SDS011;7052;51.050;3.716;2023-01-10T04:58:42;18.27;;;4.73;;
13959;SDS011;7052;51.050;3.716;2023-01-10T05:01:09;17.03;;;4.47;;
13959;SDS011;7052;51.050;3.716;2023-01-10T05:03:37;18.43;;;4.70;;
13959;SDS011;7052;51.050;3.716;2023-01-10T05:06:04;17.10;;;4.63;;
13959;SDS011;7052;51.050;3.716;2023-01-10T05:08:31;15.63;;;4.87;;
13959;SDS011;7052;51.050;3.716;2023-01-10T05:10:58;23.03;;;4.93;;
13959;SDS011;7052;51.050;3.716;2023-01-10T05:13:25;23.87;;;5.60;;
13959;SDS011;7052;51.050;3.716;2023-01-10T05:15:54;20.77;;;4.40;;
13959;SDS011;7052;51.050;3.716;2023-01-10T05:18:22;16.73;;;4.57;;
13959;SDS011;7052;51.050;3.716;2023-01-10T05:20:49;14.00;;;4.30;;
13959;SDS011;7052;51.050;3.716;2023-01-10T05:23:15;24.17;;;5.17;;
13959;SDS011;7052;51.050;3.716;2023-01-10T05:25:44;20.70;;;4.43;;
13959;SDS011;7052;51.050;3.716;2023-01-10T05:28:11;18.70;;;4.67;;
13959;SDS011;7052;51.050;3.716;2023-01-10T05:30:38;23.13;;;4.60;;
13959;SDS011;7052;51.050;3.716;2023-01-10T05:33:06;20.70;;;5.17;;
13959;SDS011;7052;51.050;3.716;2023-01-10T05:35:34;18.37;;;4.80;;
13959;SDS011;7052;51.050;3.716;2023-01-10T05:38:01;23.63;;;5.40;;
13959;SDS011;7052;51.050;3.716;2023-01-10T05:40:28;19.87;;;4.40;;
13959;SDS011;7052;51.050;3.716;2023-01-10T05:42:55;24.67;;;5.47;;
13959;SDS011;7052;51.050;3.716;2023-01-10T05:45:21;17.70;;;4.87;;
13959;SDS011;7052;51.050;3.716;2023-01-10T05:47:48;17.80;;;4.80;;
13959;SDS011;7052;51.050;3.716;2023-01-10T05:50:17;14.77;;;4.20;;
13959;SDS011;7052;51.050;3.716;2023-01-10T05:52:44;22.03;;;5.13;;
13959;SDS011;7052;51.050;3.716;2023-01-10T05:55:11;18.50;;;4.53;;
13959;SDS011;7052;51.050;3.716;2023-01-10T05:57:37;20.40;;;4.67;;
13959;SDS011;7052;51.050;3.716;2023-01-10T06:00:05;18.17;;;4.73;;
13959;SDS011;7052;51.050;3.716;2023-01-10T06:02:32;21.00;;;4.97;;
13959;SDS011;7052;51.050;3.716;2023-01-10T06:04:59;21.90;;;4.97;;
13959;SDS011;7052;51.050;3.716;2023-01-10T06:07:28;13.40;;;4.47;;
13959;SDS011;7052;51.050;3.716;2023-01-10T06:09:56;19.20;;;4.87;;
13959;SDS011;7052;51.050;3.716;2023-01-10T06:12:23;28.20;;;5.23;;
13959;SDS011;7052;51.050;3.716;2023-01-10T06:14:49;18.50;;;4.53;;
13959;SDS011;7052;51.050;3.716;2023-01-10T06:17:16;15.87;;;4.77;;
13959;SDS011;7052;51.050;3.716;2023-01-10T06:19:43;19.57;;;5.10;;
13959;SDS011;7052;51.050;3.716;2023-01-10T06:22:10;18.83;;;4.63;;
13959;SDS011;7052;51.050;3.716;2023-01-10T06:24:39;17.63;;;4.37;;
13959;SDS011;7052;51.050;3.716;2023-01-10T06:27:06;20.90;;;4.73;;
13959;SDS011;7052;51.050;3.716;2023-01-10T06:29:33;23.97;;;5.53;;
13959;SDS011;7052;51.050;3.716;2023-01-10T06:32:00;15.23;;;4.77;;
13959;SDS011;7052;51.050;3.716;2023-01-10T06:34:27;18.67;;;5.13;;
13959;SDS011;7052;51.050;3.716;2023-01-10T06:36:54;16.00;;;5.03;;
13959;SDS011;7052;51.050;3.716;2023-01-10T06:39:20;19.60;;;5.07;;
13959;SDS011;7052;51.050;3.716;2023-01-10T06:41:48;22.07;;;4.70;;
13959;SDS011;7052;51.050;3.716;2023-01-10T06:44:15;22.40;;;4.47;;
13959;SDS011;7052;51.050;3.716;2023-01-10T06:46:43;23.03;;;5.23;;
13959;SDS011;7052;51.050;3.716;2023-01-10T06:49:10;18.03;;;4.50;;
13959;SDS011;7052;51.050;3.716;2023-01-10T06:51:38;17.60;;;4.50;;
13959;SDS011;7052;51.050;3.716;2023-01-10T06:54:05;16.43;;;4.40;;
13959;SDS011;7052;51.050;3.716;2023-01-10T06:56:32;15.50;;;4.50;;
13959;SDS011;7052;51.050;3.716;2023-01-10T06:59:02;22.57;;;5.87;;
13959;SDS011;7052;51.050;3.716;2023-01-10T07:01:29;15.60;;;4.90;;
13959;SDS011;7052;51.050;3.716;2023-01-10T07:03:55;15.97;;;4.00;;
13959;SDS011;7052;51.050;3.716;2023-01-10T07:06:22;16.70;;;4.43;;
13959;SDS011;7052;51.050;3.716;2023-01-10T07:08:49;19.10;;;4.67;;
13959;SDS011;7052;51.050;3.716;2023-01-10T07:11:16;20.07;;;4.57;;
13959;SDS011;7052;51.050;3.716;2023-01-10T07:13:43;14.90;;;4.30;;
13959;SDS011;7052;51.050;3.716;2023-01-10T07:16:12;19.37;;;5.10;;
13959;SDS011;7052;51.050;3.716;2023-01-10T07:18:40;15.00;;;3.97;;
13959;SDS011;7052;51.050;3.716;2023-01-10T07:21:08;19.83;;;4.40;;
13959;SDS011;7052;51.050;3.716;2023-01-10T07:23:36;15.93;;;4.07;;
13959;SDS011;7052;51.050;3.716;2023-01-10T07:26:05;22.33;;;4.83;;
13959;SDS011;7052;51.050;3.716;2023-01-10T07:28:32;28.20;;;5.23;;
13959;SDS011;7052;51.050;3.716;2023-01-10T07:31:00;19.57;;;4.13;;
13959;SDS011;7052;51.050;3.716;2023-01-10T07:33:29;23.47;;;5.03;;
13959;SDS011;7052;51.050;3.716;2023-01-10T07:35:56;18.47;;;4.83;;
13959;SDS011;7052;51.050;3.716;2023-01-10T07:38:24;17.20;;;4.07;;
13959;SDS011;7052;51.050;3.716;2023-01-10T07:40:51;18.57;;;5.67;;
13959;SDS011;7052;51.050;3.716;2023-01-10T07:43:18;12.30;;;4.30;;
13959;SDS011;7052;51.050;3.716;2023-01-10T07:45:45;18.10;;;4.97;;
13959;SDS011;7052;51.050;3.716;2023-01-10T07:48:13;14.33;;;4.70;;
13959;SDS011;7052;51.050;3.716;2023-01-10T07:50:41;26.77;;;6.63;;
13959;SDS011;7052;51.050;3.716;2023-01-10T07:53:09;24.13;;;5.13;;
13959;SDS011;7052;51.050;3.716;2023-01-10T07:55:36;17.60;;;4.83;;
13959;SDS011;7052;51.050;3.716;2023-01-10T07:58:04;20.10;;;5.47;;
13959;SDS011;7052;51.050;3.716;2023-01-10T08:00:32;13.97;;;4.30;;
13959;SDS011;7052;51.050;3.716;2023-01-10T08:03:00;17.53;;;4.77;;
13959;SDS011;7052;51.050;3.716;2023-01-10T08:05:27;14.90;;;5.10;;
13959;SDS011;7052;51.050;3.716;2023-01-10T08:07:56;29.73;;;6.30;;
13959;SDS011;7052;51.050;3.716;2023-01-10T08:10:29;17.70;;;4.50;;
13959;SDS011;7052;51.050;3.716;2023-01-10T08:12:57;18.23;;;5.33;;
13959;SDS011;7052;51.050;3.716;2023-01-10T08:15:24;20.83;;;4.77;;
13959;SDS011;7052;51.050;3.716;2023-01-10T08:17:51;14.37;;;4.13;;
13959;SDS011;7052;51.050;3.716;2023-01-10T08:20:19;14.90;;;4.67;;
13959;SDS011;7052;51.050;3.716;2023-01-10T08:22:45;15.17;;;4.37;;
13959;SDS011;7052;51.050;3.716;2023-01-10T08:25:14;16.07;;;4.70;;
13959;SDS011;7052;51.050;3.716;2023-01-10T08:27:41;16.40;;;4.60;;
13959;SDS011;7052;51.050;3.716;2023-01-10T08:30:08;11.00;;;4.63;;
13959;SDS011;7052;51.050;3.716;2023-01-10T08:32:36;17.83;;;4.90;;
13959;SDS011;7052;51.050;3.716;2023-01-10T08:35:04;19.13;;;4.33;;
13959;SDS011;7052;51.050;3.716;2023-01-10T08:37:31;16.00;;;4.50;;
13959;SDS011;7052;51.050;3.716;2023-01-10T08:39:59;14.93;;;4.77;;
13959;SDS011;7052;51.050;3.716;2023-01-10T08:42:27;15.70;;;4.60;;
13959;SDS011;7052;51.050;3.716;2023-01-10T08:44:54;21.20;;;4.80;;
13959;SDS011;7052;51.050;3.716;2023-01-10T08:47:21;21.50;;;5.17;;
13959;SDS011;7052;51.050;3.716;2023-01-10T08:49:47;18.33;;;4.57;;
13959;SDS011;7052;51.050;3.716;2023-01-10T08:52:15;18.20;;;4.77;;
13959;SDS011;7052;51.050;3.716;2023-01-10T08:54:41;13.20;;;4.17;;
13959;SDS011;7052;51.050;3.716;2023-01-10T08:57:08;15.40;;;4.50;;
13959;SDS011;7052;51.050;3.716;2023-01-10T08:59:36;18.80;;;4.67;;
13959;SDS011;7052;51.050;3.716;2023-01-10T09:02:03;16.67;;;3.93;;
13959;SDS011;7052;51.050;3.716;2023-01-10T09:04:32;21.20;;;4.80;;
13959;SDS011;7052;51.050;3.716;2023-01-10T09:06:59;26.77;;;5.00;;
13959;SDS011;7052;51.050;3.716;2023-01-10T09:09:26;19.70;;;4.50;;
13959;SDS011;7052;51.050;3.716;2023-01-10T09:11:52;22.23;;;5.00;;
13959;SDS011;7052;51.050;3.716;2023-01-10T09:14:19;21.70;;;5.03;;
13959;SDS011;7052;51.050;3.716;2023-01-10T09:16:48;21.57;;;5.47;;
13959;SDS011;7052;51.050;3.716;2023-01-10T09:19:15;24.70;;;5.53;;
13959;SDS011;7052;51.050;3.716;2023-01-10T09:21:42;23.70;;;4.97;;
13959;SDS011;7052;51.050;3.716;2023-01-10T09:24:09;15.67;;;4.43;;
13959;SDS011;7052;51.050;3.716;2023-01-10T09:26:36;22.17;;;4.80;;
13959;SDS011;7052;51.050;3.716;2023-01-10T09:29:03;20.77;;;5.33;;
13959;SDS011;7052;51.050;3.716;2023-01-10T09:31:30;14.10;;;4.63;;
13959;SDS011;7052;51.050;3.716;2023-01-10T09:33:58;21.33;;;5.63;;
13959;SDS011;7052;51.050;3.716;2023-01-10T09:36:25;22.23;;;5.20;;
13959;SDS011;7052;51.050;3.716;2023-01-10T09:38:51;23.07;;;5.23;;
13959;SDS011;7052;51.050;3.716;2023-01-10T09:41:25;16.57;;;4.50;;
13959;SDS011;7052;51.050;3.716;2023-01-10T09:44:13;18.23;;;5.27;;
13959;SDS011;7052;51.050;3.716;2023-01-10T09:46:46;13.27;;;4.87;;
13959;SDS011;7052;51.050;3.716;2023-01-10T09:49:20;17.33;;;5.53;;
13959;SDS011;7052;51.050;3.716;2023-01-10T09:52:01;17.73;;;5.03;;
13959;SDS011;7052;51.050;3.716;2023-01-10T09:54:35;12.40;;;4.20;;
13959;SDS011;7052;51.050;3.716;2023-01-10T09:57:07;18.43;;;5.03;;
13959;SDS011;7052;51.050;3.716;2023-01-10T09:59:39;22.60;;;5.50;;
13959;SDS011;7052;51.050;3.716;2023-01-10T10:02:13;25.07;;;6.33;;
13959;SDS011;7052;51.050;3.716;2023-01-10T10:04:52;18.10;;;4.70;;
13959;SDS011;7052;51.050;3.716;2023-01-10T10:07:27;19.37;;;5.03;;
13959;SDS011;7052;51.050;3.716;2023-01-10T10:09:54;12.07;;;4.23;;
13959;SDS011;7052;51.050;3.716;2023-01-10T10:12:24;16.77;;;4.70;;
13959;SDS011;7052;51.050;3.716;2023-01-10T10:14:58;12.70;;;4.33;;
13959;SDS011;7052;51.050;3.716;2023-01-10T10:17:36;15.47;;;4.53;;
13959;SDS011;7052;51.050;3.716;2023-01-10T10:20:16;14.37;;;5.00;;
13959;SDS011;7052;51.050;3.716;2023-01-10T10:22:53;16.57;;;5.20;;
13959;SDS011;7052;51.050;3.716;2023-01-10T10:25:36;13.50;;;4.63;;
13959;SDS011;7052;51.050;3.716;2023-01-10T10:28:13;14.40;;;4.10;;
13959;SDS011;7052;51.050;3.716;2023-01-10T10:30:56;17.37;;;4.33;;
13959;SDS011;7052;51.050;3.716;2023-01-10T10:33:36;17.93;;;4.80;;
13959;SDS011;7052;51.050;3.716;2023-01-10T10:36:21;14.47;;;4.30;;
13959;SDS011;7052;51.050;3.716;2023-01-10T10:38:52;15.13;;;4.90;;
13959;SDS011;7052;51.050;3.716;2023-01-10T10:41:27;15.40;;;5.00;;
13959;SDS011;7052;51.050;3.716;2023-01-10T10:43:58;13.07;;;4.47;;
13959;SDS011;7052;51.050;3.716;2023-01-10T10:46:28;16.80;;;4.67;;
13959;SDS011;7052;51.050;3.716;2023-01-10T10:48:57;13.33;;;4.47;;
13959;SDS011;7052;51.050;3.716;2023-01-10T10:51:28;19.83;;;5.50;;
13959;SDS011;7052;51.050;3.716;2023-01-10T10:54:03;15.17;;;4.80;;
13959;SDS011;7052;51.050;3.716;2023-01-10T10:56:31;20.73;;;4.67;;
13959;SDS011;7052;51.050;3.716;2023-01-10T10:58:58;18.07;;;4.57;;
13959;SDS011;7052;51.050;3.716;2023-01-10T11:01:26;22.40;;;5.20;;
13959;SDS011;7052;51.050;3.716;2023-01-10T11:03:53;21.13;;;6.37;;
13959;SDS011;7052;51.050;3.716;2023-01-10T11:06:23;14.73;;;4.93;;
13959;SDS011;7052;51.050;3.716;2023-01-10T11:08:54;14.33;;;3.93;;
13959;SDS011;7052;51.050;3.716;2023-01-10T11:11:24;15.07;;;5.00;;
13959;SDS011;7052;51.050;3.716;2023-01-10T11:13:54;12.57;;;4.20;;
13959;SDS011;7052;51.050;3.716;2023-01-10T11:16:24;17.40;;;4.80;;
13959;SDS011;7052;51.050;3.716;2023-01-10T11:21:52;18.37;;;4.50;;
13959;SDS011;7052;51.050;3.716;2023-01-10T11:24:27;10.00;;;3.77;;
13959;SDS011;7052;51.050;3.716;2023-01-10T11:26:55;14.60;;;5.23;;
13959;SDS011;7052;51.050;3.716;2023-01-10T11:29:25;10.50;;;3.93;;
13959;SDS011;7052;51.050;3.716;2023-01-10T11:31:53;16.10;;;5.50;;
13959;SDS011;7052;51.050;3.716;2023-01-10T11:34:22;15.30;;;4.93;;
13959;SDS011;7052;51.050;3.716;2023-01-10T11:36:56;14.57;;;5.20;;
13959;SDS011;7052;51.050;3.716;2023-01-10T11:39:27;13.30;;;4.43;;
13959;SDS011;7052;51.050;3.716;2023-01-10T11:41:55;14.77;;;4.10;;
13959;SDS011;7052;51.050;3.716;2023-01-10T11:44:24;16.63;;;4.53;;
13959;SDS011;7052;51.050;3.716;2023-01-10T11:46:53;13.07;;;4.47;;
13959;SDS011;7052;51.050;3.716;2023-01-10T11:49:26;13.50;;;4.20;;
13959;SDS011;7052;51.050;3.716;2023-01-10T11:51:57;16.07;;;4.63;;
13959;SDS011;7052;51.050;3.716;2023-01-10T11:54:29;16.63;;;6.30;;
13959;SDS011;7052;51.050;3.716;2023-01-10T11:56:59;16.57;;;4.60;;
13959;SDS011;7052;51.050;3.716;2023-01-10T11:59:29;12.93;;;4.67;;
13959;SDS011;7052;51.050;3.716;2023-01-10T12:01:58;15.33;;;4.73;;
13959;SDS011;7052;51.050;3.716;2023-01-10T12:04:29;16.80;;;5.43;;
13959;SDS011;7052;51.050;3.716;2023-01-10T12:06:58;13.03;;;4.67;;
13959;SDS011;7052;51.050;3.716;2023-01-10T12:09:38;12.33;;;4.67;;
13959;SDS011;7052;51.050;3.716;2023-01-10T12:12:13;16.43;;;3.97;;
13959;SDS011;7052;51.050;3.716;2023-01-10T12:14:42;14.17;;;3.80;;
13959;SDS011;7052;51.050;3.716;2023-01-10T12:17:10;15.00;;;4.60;;
13959;SDS011;7052;51.050;3.716;2023-01-10T12:19:44;12.67;;;4.37;;
13959;SDS011;7052;51.050;3.716;2023-01-10T12:22:11;12.93;;;4.27;;
13959;SDS011;7052;51.050;3.716;2023-01-10T12:24:43;12.67;;;4.07;;
13959;SDS011;7052;51.050;3.716;2023-01-10T12:27:14;10.00;;;3.83;;
13959;SDS011;7052;51.050;3.716;2023-01-10T12:29:44;13.23;;;3.97;;
13959;SDS011;7052;51.050;3.716;2023-01-10T12:32:18;11.13;;;3.73;;
13959;SDS011;7052;51.050;3.716;2023-01-10T12:34:49;8.10;;;3.17;;
13959;SDS011;7052;51.050;3.716;2023-01-10T12:37:23;10.70;;;3.50;;
13959;SDS011;7052;51.050;3.716;2023-01-10T12:39:58;10.20;;;3.10;;
13959;SDS011;7052;51.050;3.716;2023-01-10T12:42:30;13.93;;;3.80;;
13959;SDS011;7052;51.050;3.716;2023-01-10T12:45:25;7.63;;;2.93;;
13959;SDS011;7052;51.050;3.716;2023-01-10T12:47:59;12.73;;;3.47;;
13959;SDS011;7052;51.050;3.716;2023-01-10T12:50:32;9.53;;;3.60;;
13959;SDS011;7052;51.050;3.716;2023-01-10T12:53:03;6.83;;;3.27;;
13959;SDS011;7052;51.050;3.716;2023-01-10T12:55:38;8.77;;;3.37;;
13959;SDS011;7052;51.050;3.716;2023-01-10T12:58:10;11.43;;;3.27;;
13959;SDS011;7052;51.050;3.716;2023-01-10T13:00:46;11.07;;;2.83;;
13959;SDS011;7052;51.050;3.716;2023-01-10T13:03:18;10.93;;;3.13;;
13959;SDS011;7052;51.050;3.716;2023-01-10T13:05:46;9.60;;;3.40;;
13959;SDS011;7052;51.050;3.716;2023-01-10T13:08:16;7.30;;;3.20;;
13959;SDS011;7052;51.050;3.716;2023-01-10T13:10:48;7.00;;;3.00;;
13959;SDS011;7052;51.050;3.716;2023-01-10T13:13:18;8.37;;;2.90;;
13959;SDS011;7052;51.050;3.716;2023-01-10T13:15:52;14.73;;;3.80;;
13959;SDS011;7052;51.050;3.716;2023-01-10T13:18:23;6.80;;;2.53;;
13959;SDS011;7052;51.050;3.716;2023-01-10T13:21:01;11.37;;;3.30;;
13959;SDS011;7052;51.050;3.716;2023-01-10T13:23:32;11.03;;;2.60;;
13959;SDS011;7052;51.050;3.716;2023-01-10T13:26:15;6.07;;;2.60;;
13959;SDS011;7052;51.050;3.716;2023-01-10T13:28:51;8.93;;;2.97;;
13959;SDS011;7052;51.050;3.716;2023-01-10T13:31:21;10.17;;;3.13;;
13959;SDS011;7052;51.050;3.716;2023-01-10T13:33:51;11.33;;;3.07;;
13959;SDS011;7052;51.050;3.716;2023-01-10T13:36:21;10.43;;;3.03;;
13959;SDS011;7052;51.050;3.716;2023-01-10T13:38:51;7.13;;;2.20;;
13959;SDS011;7052;51.050;3.716;2023-01-10T13:41:21;5.63;;;2.53;;
13959;SDS011;7052;51.050;3.716;2023-01-10T13:44:08;4.67;;;2.10;;
13959;SDS011;7052;51.050;3.716;2023-01-10T13:46:37;11.17;;;3.00;;
13959;SDS011;7052;51.050;3.716;2023-01-10T13:57:50;5.80;;;2.23;;
13959;SDS011;7052;51.050;3.716;2023-01-10T14:00:27;5.30;;;2.43;;
13959;SDS011;7052;51.050;3.716;2023-01-10T14:03:36;5.43;;;2.17;;
13959;SDS011;7052;51.050;3.716;2023-01-10T14:06:07;2.87;;;1.77;;
13959;SDS011;7052;51.050;3.716;2023-01-10T14:08:57;6.43;;;2.03;;
13959;SDS011;7052;51.050;3.716;2023-01-10T14:11:26;4.93;;;2.27;;
13959;SDS011;7052;51.050;3.716;2023-01-10T14:14:01;5.23;;;2.47;;
13959;SDS011;7052;51.050;3.716;2023-01-10T14:16:32;5.13;;;2.47;;
13959;SDS011;7052;51.050;3.716;2023-01-10T14:19:01;4.43;;;1.97;;
13959;SDS011;7052;51.050;3.716;2023-01-10T14:21:30;3.30;;;1.73;;
13959;SDS011;7052;51.050;3.716;2023-01-10T14:24:02;3.40;;;1.73;;
13959;SDS011;7052;51.050;3.716;2023-01-10T14:26:30;4.60;;;2.50;;
13959;SDS011;7052;51.050;3.716;2023-01-10T14:29:01;3.70;;;1.83;;
13959;SDS011;7052;51.050;3.716;2023-01-10T14:31:32;3.97;;;2.13;;
13959;SDS011;7052;51.050;3.716;2023-01-10T14:34:02;2.40;;;1.70;;
13959;SDS011;7052;51.050;3.716;2023-01-10T14:36:37;2.37;;;1.70;;
13959;SDS011;7052;51.050;3.716;2023-01-10T14:39:12;10.23;;;2.50;;
13959;SDS011;7052;51.050;3.716;2023-01-10T14:41:41;4.30;;;2.27;;
13959;SDS011;7052;51.050;3.716;2023-01-10T14:44:14;3.53;;;2.10;;
13959;SDS011;7052;51.050;3.716;2023-01-10T14:46:46;3.33;;;1.60;;
13959;SDS011;7052;51.050;3.716;2023-01-10T14:49:19;3.90;;;1.93;;
13959;SDS011;7052;51.050;3.716;2023-01-10T14:51:47;2.80;;;1.67;;
13959;SDS011;7052;51.050;3.716;2023-01-10T14:54:16;3.97;;;1.60;;
13959;SDS011;7052;51.050;3.716;2023-01-10T14:56:45;3.27;;;1.67;;
13959;SDS011;7052;51.050;3.716;2023-01-10T14:59:19;3.97;;;1.90;;
13959;SDS011;7052;51.050;3.716;2023-01-10T15:01:49;6.90;;;1.80;;
13959;SDS011;7052;51.050;3.716;2023-01-10T15:04:18;3.30;;;1.60;;
13959;SDS011;7052;51.050;3.716;2023-01-10T15:06:54;4.60;;;2.03;;
13959;SDS011;7052;51.050;3.716;2023-01-10T15:09:23;5.27;;;1.80;;
13959;SDS011;7052;51.050;3.716;2023-01-10T15:11:51;3.80;;;1.80;;
13959;SDS011;7052;51.050;3.716;2023-01-10T15:14:21;5.73;;;2.97;;
13959;SDS011;7052;51.050;3.716;2023-01-10T15:16:51;2.80;;;1.80;;
13959;SDS011;7052;51.050;3.716;2023-01-10T15:19:21;2.40;;;2.00;;
13959;SDS011;7052;51.050;3.716;2023-01-10T15:21:49;2.23;;;1.83;;
13959;SDS011;7052;51.050;3.716;2023-01-10T15:24:23;3.23;;;1.80;;
13959;SDS011;7052;51.050;3.716;2023-01-10T15:26:54;2.63;;;1.67;;